createdAt,value
2018-10-07T00:00:26.822Z,7.60
2018-10-07T00:02:55.643Z,8.01
2018-10-07T00:05:24.703Z,7.68
2018-10-07T00:07:53.473Z,8.00
2018-10-07T00:10:22.270Z,7.98
2018-10-07T00:12:50.862Z,7.95
2018-10-07T00:15:19.543Z,7.96
2018-10-07T00:17:48.018Z,7.97
2018-10-07T00:20:16.647Z,7.97
2018-10-07T00:22:45.170Z,7.97
2018-10-07T00:25:13.703Z,7.95
2018-10-07T00:27:42.397Z,7.52
2018-10-07T00:30:10.878Z,7.89
2018-10-07T00:32:39.493Z,7.90
2018-10-07T00:35:08.110Z,7.87
2018-10-07T00:37:36.656Z,7.87
2018-10-07T00:40:05.350Z,7.84
2018-10-07T00:42:34.062Z,7.82
2018-10-07T00:45:02.765Z,7.81
2018-10-07T00:47:31.238Z,7.80
2018-10-07T00:50:00.030Z,7.78
2018-10-07T00:52:28.622Z,7.74
2018-10-07T00:54:57.225Z,7.71
2018-10-07T00:57:25.846Z,7.68
2018-10-07T00:59:54.405Z,7.66
2018-10-07T01:02:23.187Z,7.22
2018-10-07T01:04:51.823Z,7.62
2018-10-07T01:07:20.538Z,7.59
2018-10-07T01:09:49.029Z,7.57
2018-10-07T01:12:17.637Z,7.53
2018-10-07T01:14:46.158Z,7.52
2018-10-07T01:17:14.701Z,7.50
2018-10-07T01:19:43.482Z,7.50
2018-10-07T01:22:12.030Z,7.49
2018-10-07T01:24:40.774Z,7.01
2018-10-07T01:27:09.327Z,7.46
2018-10-07T01:29:37.968Z,7.45
2018-10-07T01:32:06.527Z,7.45
2018-10-07T01:34:35.082Z,7.44
2018-10-07T01:37:03.807Z,7.31
2018-10-07T01:39:32.295Z,7.40
2018-10-07T01:42:01.006Z,7.39
2018-10-07T01:44:29.510Z,7.40
2018-10-07T01:46:58.358Z,7.41
2018-10-07T01:49:26.886Z,7.42
2018-10-07T01:51:55.378Z,7.40
2018-10-07T01:54:23.887Z,7.42
2018-10-07T01:56:52.406Z,7.42
2018-10-07T01:59:21.251Z,7.43
2018-10-07T02:01:49.841Z,7.43
2018-10-07T02:04:18.518Z,7.43
2018-10-07T02:06:47.018Z,7.43
2018-10-07T02:09:15.596Z,7.44
2018-10-07T02:11:44.101Z,7.45
2018-10-07T02:14:12.574Z,7.47
2018-10-07T02:16:41.258Z,7.49
2018-10-07T02:19:09.818Z,7.50
2018-10-07T02:21:38.521Z,7.51
2018-10-07T02:24:07.230Z,7.50
2018-10-07T02:26:35.902Z,7.50
2018-10-07T02:29:04.496Z,7.51
2018-10-07T02:31:33.000Z,7.52
2018-10-07T02:34:01.843Z,7.44
2018-10-07T02:36:30.324Z,7.51
2018-10-07T02:38:59.182Z,7.50
2018-10-07T02:41:27.779Z,7.49
2018-10-07T02:43:56.349Z,7.47
2018-10-07T02:46:24.846Z,7.44
2018-10-07T02:48:53.367Z,7.42
2018-10-07T02:51:21.966Z,7.41
2018-10-07T02:53:50.696Z,7.38
2018-10-07T02:56:19.506Z,7.34
2018-10-07T02:58:48.059Z,7.32
2018-10-07T03:01:16.879Z,7.28
2018-10-07T03:03:45.394Z,7.25
2018-10-07T03:06:14.064Z,7.20
2018-10-07T03:08:42.705Z,7.13
2018-10-07T03:11:11.390Z,7.06
2018-10-07T03:13:40.155Z,7.01
2018-10-07T03:18:43.454Z,6.90
2018-10-07T03:21:12.317Z,6.83
2018-10-07T03:23:40.778Z,6.75
2018-10-07T03:26:09.309Z,6.68
2018-10-07T03:28:37.863Z,6.59
2018-10-07T03:31:06.494Z,6.52
2018-10-07T03:33:35.210Z,6.44
2018-10-07T03:36:03.691Z,6.37
2018-10-07T03:38:32.407Z,5.96
2018-10-07T03:41:01.050Z,6.27
2018-10-07T03:43:29.590Z,6.21
2018-10-07T03:45:58.070Z,6.08
2018-10-07T03:48:26.669Z,6.08
2018-10-07T03:50:55.458Z,6.03
2018-10-07T03:53:23.930Z,6.02
2018-10-07T03:55:52.674Z,5.98
2018-10-07T03:58:21.162Z,5.91
2018-10-07T04:00:50.074Z,5.83
2018-10-07T04:03:18.602Z,5.78
2018-10-07T04:05:47.389Z,5.74
2018-10-07T04:08:15.966Z,5.67
2018-10-07T04:10:44.503Z,5.61
2018-10-07T04:13:13.114Z,5.47
2018-10-07T04:15:41.655Z,5.44
2018-10-07T04:18:10.462Z,4.76
2018-10-07T04:20:39.046Z,5.31
2018-10-07T04:23:07.998Z,5.26
2018-10-07T04:25:36.515Z,5.18
2018-10-07T04:28:05.191Z,5.12
2018-10-07T04:30:33.727Z,4.95
2018-10-07T04:33:03.141Z,5.00
2018-10-07T04:35:31.850Z,4.94
2018-10-07T04:38:00.326Z,4.91
2018-10-07T04:40:29.423Z,4.16
2018-10-07T04:42:58.029Z,4.80
2018-10-07T04:45:26.981Z,4.75
2018-10-07T04:47:55.462Z,4.68
2018-10-07T04:50:24.122Z,4.64
2018-10-07T04:52:52.814Z,4.49
2018-10-07T04:55:21.310Z,4.59
2018-10-07T04:57:51.406Z,4.18
2018-10-07T05:00:20.112Z,4.47
2018-10-07T05:02:48.986Z,3.70
2018-10-07T05:05:17.614Z,4.41
2018-10-07T05:07:46.334Z,4.41
2018-10-07T05:10:26.322Z,4.39
2018-10-07T05:12:55.800Z,4.37
2018-10-07T05:15:25.938Z,4.23
2018-10-07T05:17:54.746Z,4.28
2018-10-07T05:20:23.346Z,4.19
2018-10-07T05:22:51.890Z,4.12
2018-10-07T05:25:20.591Z,4.08
2018-10-07T05:27:49.086Z,4.02
2018-10-07T05:30:17.797Z,4.07
2018-10-07T05:32:46.315Z,4.06
2018-10-07T05:35:14.791Z,4.05
2018-10-07T05:37:43.396Z,4.05
2018-10-07T05:40:11.863Z,4.03
2018-10-07T05:42:40.616Z,4.01
2018-10-07T05:45:09.210Z,4.00
2018-10-07T05:47:38.069Z,3.96
2018-10-07T05:50:06.638Z,3.93
2018-10-07T05:52:35.333Z,3.92
2018-10-07T05:55:04.186Z,3.89
2018-10-07T05:57:32.742Z,3.89
2018-10-07T06:00:01.490Z,3.87
2018-10-07T06:02:30.052Z,3.83
2018-10-07T06:04:59.438Z,3.31
2018-10-07T06:07:29.039Z,3.86
2018-10-07T06:09:57.734Z,3.87
2018-10-07T06:12:26.342Z,3.84
2018-10-07T06:17:32.485Z,3.83
2018-10-07T06:20:01.106Z,3.84
2018-10-07T06:22:29.964Z,3.88
2018-10-07T06:24:58.595Z,3.91
2018-10-07T06:27:27.164Z,3.97
2018-10-07T06:29:55.948Z,4.01
2018-10-07T06:32:24.453Z,4.04
2018-10-07T06:34:53.248Z,4.08
2018-10-07T06:37:22.168Z,4.12
2018-10-07T06:39:50.881Z,4.18
2018-10-07T06:42:19.451Z,4.22
2018-10-07T06:44:48.194Z,4.27
2018-10-07T06:47:16.805Z,4.31
2018-10-07T06:49:45.984Z,4.33
2018-10-07T06:52:14.628Z,4.36
2018-10-07T06:54:43.272Z,4.43
2018-10-07T06:57:11.837Z,4.13
2018-10-07T06:59:40.320Z,4.50
2018-10-07T07:02:09.328Z,4.55
2018-10-07T07:04:37.853Z,4.60
2018-10-07T07:07:07.069Z,4.64
2018-10-07T07:09:35.702Z,4.69
2018-10-07T07:12:04.297Z,4.75
2018-10-07T07:14:32.903Z,4.80
2018-10-07T07:17:01.395Z,4.86
2018-10-07T07:19:30.054Z,4.61
2018-10-07T07:21:58.604Z,4.98
2018-10-07T07:24:27.270Z,5.02
2018-10-07T07:26:55.814Z,5.09
2018-10-07T07:29:24.439Z,5.17
2018-10-07T07:31:53.041Z,5.27
2018-10-07T07:34:21.595Z,5.34
2018-10-07T07:36:50.422Z,5.44
2018-10-07T07:39:18.942Z,5.54
2018-10-07T07:41:47.668Z,5.31
2018-10-07T07:44:16.178Z,5.74
2018-10-07T07:46:44.794Z,5.83
2018-10-07T07:49:13.360Z,6.04
2018-10-07T07:51:41.851Z,6.23
2018-10-07T07:54:10.657Z,6.25
2018-10-07T07:56:39.262Z,6.27
2018-10-07T07:59:08.994Z,6.32
2018-10-07T08:01:37.639Z,6.38
2018-10-07T08:04:06.365Z,6.49
2018-10-07T08:06:35.043Z,6.65
2018-10-07T08:09:05.017Z,6.80
2018-10-07T08:11:33.531Z,6.92
2018-10-07T08:14:02.269Z,7.05
2018-10-07T08:16:30.896Z,7.14
2018-10-07T08:18:59.430Z,7.23
2018-10-07T08:21:28.229Z,7.33
2018-10-07T08:23:56.842Z,7.54
2018-10-07T08:26:25.497Z,7.67
2018-10-07T08:28:54.023Z,7.77
2018-10-07T08:31:22.634Z,7.84
2018-10-07T08:33:51.954Z,7.90
2018-10-07T08:36:20.449Z,7.98
2018-10-07T08:38:49.077Z,8.00
2018-10-07T08:41:17.581Z,8.13
2018-10-07T08:43:46.345Z,8.19
2018-10-07T08:46:15.036Z,8.31
2018-10-07T08:48:43.713Z,8.39
2018-10-07T08:51:12.182Z,8.50
2018-10-07T08:53:40.746Z,8.56
2018-10-07T08:56:09.568Z,8.64
2018-10-07T08:58:38.049Z,8.73
2018-10-07T09:01:07.563Z,8.81
2018-10-07T09:03:36.102Z,8.88
2018-10-07T09:06:05.144Z,8.91
2018-10-07T09:08:34.495Z,8.95
2018-10-07T09:11:03.316Z,8.97
2018-10-07T09:13:33.785Z,9.01
2018-10-07T09:16:02.924Z,9.07
2018-10-07T09:18:31.450Z,9.14
2018-10-07T09:21:00.391Z,9.22
2018-10-07T09:23:28.935Z,9.28
2018-10-07T09:25:57.510Z,9.35
2018-10-07T09:28:26.156Z,9.43
2018-10-07T09:30:54.740Z,9.46
2018-10-07T09:33:23.698Z,9.55
2018-10-07T09:35:52.244Z,9.63
2018-10-07T09:38:21.404Z,9.70
2018-10-07T09:40:50.109Z,9.74
2018-10-07T09:43:18.794Z,9.81
2018-10-07T09:45:47.450Z,9.77
2018-10-07T09:48:16.062Z,9.95
2018-10-07T09:50:44.958Z,10.06
2018-10-07T09:53:13.606Z,10.11
2018-10-07T09:55:42.533Z,10.16
2018-10-07T09:58:11.089Z,10.19
2018-10-07T10:00:40.078Z,10.25
2018-10-07T10:03:09.266Z,10.23
2018-10-07T10:05:38.090Z,10.28
2018-10-07T10:08:06.974Z,10.39
2018-10-07T10:10:35.502Z,10.47
2018-10-07T10:13:04.142Z,10.42
2018-10-07T10:15:32.971Z,10.52
2018-10-07T10:18:04.518Z,10.55
2018-10-07T10:20:41.202Z,10.59
2018-10-07T10:23:13.773Z,10.62
2018-10-07T10:26:04.630Z,10.68
2018-10-07T10:28:41.870Z,10.72
2018-10-07T10:31:16.029Z,10.80
2018-10-07T10:33:50.398Z,10.87
2018-10-07T10:36:37.434Z,10.92
2018-10-07T10:40:46.864Z,10.97
2018-10-07T10:43:18.330Z,11.05
2018-10-07T10:46:52.978Z,11.08
2018-10-07T10:49:27.550Z,11.12
2018-10-07T10:52:32.186Z,11.11
2018-10-07T10:55:08.705Z,11.16
2018-10-07T10:57:44.738Z,11.23
2018-10-07T11:00:16.310Z,11.29
2018-10-07T11:02:56.414Z,11.31
2018-10-07T11:05:32.478Z,11.33
2018-10-07T11:08:08.595Z,11.37
2018-10-07T11:10:43.426Z,11.38
2018-10-07T11:13:35.119Z,11.42
2018-10-07T11:18:18.058Z,11.47
2018-10-07T11:21:26.730Z,11.51
2018-10-07T11:24:05.349Z,11.61
2018-10-07T11:26:43.466Z,11.64
2018-10-07T11:29:18.802Z,11.67
2018-10-07T11:32:11.639Z,11.64
2018-10-07T11:34:55.315Z,11.37
2018-10-07T11:38:35.309Z,11.78
2018-10-07T11:41:10.715Z,11.89
2018-10-07T11:43:48.672Z,11.96
2018-10-07T11:46:29.450Z,12.02
2018-10-07T11:49:06.828Z,12.07
2018-10-07T11:51:44.866Z,12.12
2018-10-07T11:54:14.722Z,12.00
2018-10-07T11:56:43.482Z,12.09
2018-10-07T11:59:12.249Z,11.68
2018-10-07T12:01:40.882Z,12.08
2018-10-07T12:04:09.606Z,12.05
2018-10-07T12:06:38.155Z,12.09
2018-10-07T12:09:07.226Z,12.10
2018-10-07T12:11:35.782Z,12.18
2018-10-07T12:14:04.312Z,12.14
2018-10-07T12:16:33.127Z,12.14
2018-10-07T12:19:01.892Z,12.08
2018-10-07T12:21:30.746Z,12.06
2018-10-07T12:23:59.340Z,12.01
2018-10-07T12:26:28.113Z,12.00
2018-10-07T12:28:56.805Z,12.00
2018-10-07T12:31:25.446Z,11.99
2018-10-07T12:33:53.987Z,11.65
2018-10-07T12:36:22.586Z,12.08
2018-10-07T12:38:51.766Z,12.11
2018-10-07T12:41:20.327Z,12.16
2018-10-07T12:43:49.286Z,12.05
2018-10-07T12:46:17.779Z,12.05
2018-10-07T12:48:46.355Z,12.14
2018-10-07T12:51:15.724Z,12.20
2018-10-07T12:53:44.349Z,12.28
2018-10-07T12:56:13.099Z,12.37
2018-10-07T12:58:42.129Z,12.36
2018-10-07T13:01:10.939Z,12.40
2018-10-07T13:03:39.629Z,12.46
2018-10-07T13:06:08.587Z,12.49
2018-10-07T13:08:37.623Z,12.52
2018-10-07T13:11:06.467Z,12.49
2018-10-07T13:13:35.016Z,12.38
2018-10-07T13:16:03.582Z,12.32
2018-10-07T13:18:32.186Z,12.28
2018-10-07T13:21:04.270Z,12.21
2018-10-07T13:23:32.824Z,12.19
2018-10-07T13:26:01.483Z,12.17
2018-10-07T13:28:30.201Z,12.18
2018-10-07T13:30:58.749Z,12.15
2018-10-07T13:33:27.323Z,12.14
2018-10-07T13:35:56.068Z,12.19
2018-10-07T13:38:24.997Z,12.19
2018-10-07T13:40:53.526Z,12.15
2018-10-07T13:43:22.433Z,12.09
2018-10-07T13:45:51.106Z,12.09
2018-10-07T13:48:20.015Z,12.05
2018-10-07T13:50:48.551Z,12.04
2018-10-07T13:53:17.846Z,12.05
2018-10-07T13:55:46.457Z,12.04
2018-10-07T13:58:15.311Z,12.05
2018-10-07T14:00:45.427Z,12.07
2018-10-07T14:03:13.991Z,12.11
2018-10-07T14:05:43.941Z,12.12
2018-10-07T14:08:12.512Z,12.19
2018-10-07T14:10:41.353Z,12.34
2018-10-07T14:13:10.105Z,12.45
2018-10-07T14:15:40.153Z,12.54
2018-10-07T14:18:10.060Z,12.57
2018-10-07T14:20:40.289Z,12.49
2018-10-07T14:23:08.930Z,12.35
2018-10-07T14:25:38.365Z,12.24
2018-10-07T14:28:07.133Z,12.20
2018-10-07T14:30:35.975Z,11.80
2018-10-07T14:33:04.566Z,12.03
2018-10-07T14:35:33.609Z,11.99
2018-10-07T14:38:02.641Z,11.89
2018-10-07T14:40:32.924Z,11.81
2018-10-07T14:43:02.847Z,11.81
2018-10-07T14:45:32.360Z,11.77
2018-10-07T14:48:01.315Z,11.75
2018-10-07T14:50:30.137Z,11.72
2018-10-07T14:52:58.769Z,11.68
2018-10-07T14:55:27.378Z,11.66
2018-10-07T14:57:56.104Z,11.36
2018-10-07T15:00:24.816Z,11.58
2018-10-07T15:02:53.883Z,11.56
2018-10-07T15:05:22.651Z,11.51
2018-10-07T15:07:51.698Z,11.48
2018-10-07T15:10:20.266Z,11.48
2018-10-07T15:12:48.985Z,11.49
2018-10-07T15:15:18.959Z,11.50
2018-10-07T15:17:47.662Z,11.54
2018-10-07T15:20:16.236Z,11.54
2018-10-07T15:22:44.808Z,11.56
2018-10-07T15:25:13.518Z,11.59
2018-10-07T15:27:42.177Z,11.59
2018-10-07T15:30:11.038Z,11.29
2018-10-07T15:32:39.622Z,11.49
2018-10-07T15:35:08.494Z,11.45
2018-10-07T15:37:37.195Z,11.34
2018-10-07T15:40:05.803Z,11.30
2018-10-07T15:42:34.879Z,11.23
2018-10-07T15:45:03.443Z,11.16
2018-10-07T15:47:32.445Z,11.09
2018-10-07T15:50:01.150Z,10.99
2018-10-07T15:52:30.056Z,10.89
2018-10-07T15:54:58.709Z,10.71
2018-10-07T15:57:27.381Z,10.65
2018-10-07T15:59:56.352Z,10.50
2018-10-07T16:02:25.034Z,10.37
2018-10-07T16:04:53.655Z,10.26
2018-10-07T16:07:22.166Z,10.16
2018-10-07T16:09:51.357Z,10.07
2018-10-07T16:12:20.007Z,9.93
2018-10-07T16:14:48.498Z,9.84
2018-10-07T16:17:17.087Z,9.73
2018-10-07T16:19:45.930Z,9.59
2018-10-07T16:22:14.517Z,9.53
2018-10-07T16:24:43.713Z,9.44
2018-10-07T16:27:12.355Z,9.32
2018-10-07T16:29:40.970Z,9.24
2018-10-07T16:32:09.836Z,9.10
2018-10-07T16:34:38.597Z,9.04
2018-10-07T16:37:07.459Z,8.94
2018-10-07T16:39:36.068Z,8.85
2018-10-07T16:42:04.660Z,8.77
2018-10-07T16:44:33.186Z,8.67
2018-10-07T16:47:01.704Z,8.56
2018-10-07T16:49:30.426Z,8.47
2018-10-07T16:51:59.034Z,8.37
2018-10-07T16:54:27.931Z,8.29
2018-10-07T16:56:56.607Z,8.20
2018-10-07T16:59:25.299Z,8.11
2018-10-07T17:01:53.877Z,7.98
2018-10-07T17:04:22.537Z,7.95
2018-10-07T17:06:51.196Z,7.79
2018-10-07T17:09:19.666Z,7.79
2018-10-07T17:11:48.430Z,7.74
2018-10-07T17:14:16.934Z,7.67
2018-10-07T17:16:45.636Z,7.62
2018-10-07T17:19:14.170Z,7.56
2018-10-07T17:21:43.896Z,7.48
2018-10-07T17:24:12.419Z,7.43
2018-10-07T17:26:41.079Z,7.00
2018-10-07T17:29:09.558Z,7.30
2018-10-07T17:31:38.166Z,7.26
2018-10-07T17:34:07.247Z,6.54
2018-10-07T17:36:35.764Z,7.21
2018-10-07T17:39:05.990Z,7.21
2018-10-07T17:41:34.534Z,7.21
2018-10-07T17:44:03.376Z,7.20
2018-10-07T17:46:31.886Z,7.16
2018-10-07T17:49:00.705Z,7.13
2018-10-07T17:51:29.118Z,7.11
2018-10-07T17:53:57.690Z,7.09
2018-10-07T17:56:26.700Z,6.70
2018-10-07T17:58:55.328Z,7.05
2018-10-07T18:01:24.138Z,7.00
2018-10-07T18:03:52.801Z,6.97
2018-10-07T18:06:21.539Z,6.92
2018-10-07T18:08:50.172Z,6.90
2018-10-07T18:11:18.780Z,6.89
2018-10-07T18:13:47.266Z,6.89
2018-10-07T18:16:15.812Z,6.89
2018-10-07T18:18:44.499Z,6.56
2018-10-07T18:21:13.109Z,6.87
2018-10-07T18:23:41.855Z,6.85
2018-10-07T18:26:10.635Z,6.84
2018-10-07T18:28:39.375Z,6.82
2018-10-07T18:31:08.053Z,6.84
2018-10-07T18:33:36.697Z,6.85
2018-10-07T18:36:05.420Z,6.82
2018-10-07T18:38:34.105Z,6.78
2018-10-07T18:41:03.004Z,6.26
2018-10-07T18:43:31.589Z,6.78
2018-10-07T18:46:00.534Z,6.04
2018-10-07T18:48:29.089Z,6.78
2018-10-07T18:50:58.070Z,6.78
2018-10-07T18:53:27.642Z,6.79
2018-10-07T18:55:56.376Z,6.78
2018-10-07T18:58:25.325Z,6.78
2018-10-07T19:00:54.285Z,6.82
2018-10-07T19:03:23.471Z,6.56
2018-10-07T19:05:52.106Z,6.89
2018-10-07T19:08:20.891Z,6.43
2018-10-07T19:10:49.558Z,7.02
2018-10-07T19:13:18.451Z,7.13
2018-10-07T19:15:47.072Z,7.24
2018-10-07T19:18:19.928Z,7.36
2018-10-07T19:20:48.580Z,7.44
2018-10-07T19:23:17.421Z,7.51
2018-10-07T19:25:46.457Z,7.57
2018-10-07T19:28:15.703Z,7.64
2018-10-07T19:30:44.325Z,7.71
2018-10-07T19:33:13.048Z,7.79
2018-10-07T19:35:41.941Z,7.87
2018-10-07T19:38:10.649Z,7.94
2018-10-07T19:40:39.310Z,8.10
2018-10-07T19:43:07.825Z,8.21
2018-10-07T19:45:37.271Z,8.38
2018-10-07T19:48:05.930Z,8.60
2018-10-07T19:50:35.283Z,8.69
2018-10-07T19:53:04.050Z,8.77
2018-10-07T19:55:32.921Z,8.81
2018-10-07T19:58:01.511Z,8.91
2018-10-07T20:00:33.336Z,9.02
2018-10-07T20:03:02.078Z,9.05
2018-10-07T20:05:30.794Z,9.07
2018-10-07T20:07:59.491Z,9.12
2018-10-07T20:10:28.307Z,9.20
2018-10-07T20:12:56.928Z,9.23
2018-10-07T20:15:25.530Z,9.33
2018-10-07T20:17:54.403Z,9.38
2018-10-07T20:20:22.937Z,9.42
2018-10-07T20:22:52.531Z,8.93
2018-10-07T20:25:21.243Z,9.47
2018-10-07T20:27:50.196Z,9.47
2018-10-07T20:30:18.848Z,9.45
2018-10-07T20:32:47.664Z,9.46
2018-10-07T20:35:16.299Z,9.50
2018-10-07T20:37:45.091Z,9.53
2018-10-07T20:40:14.611Z,9.54
2018-10-07T20:42:43.254Z,9.57
2018-10-07T20:45:12.054Z,9.50
2018-10-07T20:47:40.591Z,9.58
2018-10-07T20:50:09.470Z,9.04
2018-10-07T20:52:38.277Z,9.60
2018-10-07T20:55:07.341Z,9.59
2018-10-07T20:57:35.981Z,9.59
2018-10-07T21:00:06.018Z,9.56
2018-10-07T21:02:34.557Z,9.56
2018-10-07T21:05:03.174Z,9.59
2018-10-07T21:07:31.749Z,9.50
2018-10-07T21:10:00.254Z,9.54
2018-10-07T21:12:28.971Z,9.56
2018-10-07T21:14:57.526Z,9.55
2018-10-07T21:17:26.542Z,9.54
2018-10-07T21:19:55.272Z,9.53
2018-10-07T21:22:24.410Z,9.52
2018-10-07T21:24:52.971Z,9.54
2018-10-07T21:27:21.532Z,9.56
2018-10-07T21:29:50.163Z,9.56
2018-10-07T21:32:18.627Z,9.56
2018-10-07T21:34:47.318Z,9.56
2018-10-07T21:37:15.932Z,9.57
2018-10-07T21:39:44.754Z,9.20
2018-10-07T21:42:13.264Z,9.52
2018-10-07T21:44:41.937Z,9.54
2018-10-07T21:47:10.517Z,9.55
2018-10-07T21:49:39.164Z,9.54
2018-10-07T21:52:07.982Z,9.22
2018-10-07T21:54:36.564Z,9.54
2018-10-07T21:57:05.396Z,9.52
2018-10-07T21:59:33.999Z,9.56
2018-10-07T22:02:02.688Z,9.52
2018-10-07T22:04:31.941Z,9.58
2018-10-07T22:07:00.671Z,9.59
2018-10-07T22:09:29.289Z,9.59
2018-10-07T22:11:57.823Z,9.59
2018-10-07T22:14:26.782Z,9.61
2018-10-07T22:16:55.351Z,9.60
2018-10-07T22:19:24.058Z,9.59
2018-10-07T22:21:52.627Z,9.61
2018-10-07T22:24:21.286Z,9.60
2018-10-07T22:26:49.831Z,9.63
2018-10-07T22:29:18.436Z,9.67
2018-10-07T22:31:47.299Z,9.67
2018-10-07T22:34:15.863Z,9.66
2018-10-07T22:36:44.615Z,9.67
2018-10-07T22:39:13.160Z,9.69
2018-10-07T22:41:41.846Z,9.73
2018-10-07T22:44:10.754Z,9.75
2018-10-07T22:46:39.367Z,9.74
2018-10-07T22:49:07.881Z,9.40
2018-10-07T22:51:36.483Z,9.74
2018-10-07T22:54:05.338Z,9.77
2018-10-07T22:56:33.859Z,9.75
2018-10-07T22:59:02.666Z,9.78
2018-10-07T23:01:31.220Z,9.78
2018-10-07T23:03:59.830Z,9.81
2018-10-07T23:06:29.111Z,9.82
2018-10-07T23:08:57.692Z,9.84
2018-10-07T23:11:26.944Z,9.16
2018-10-07T23:13:55.671Z,9.87
2018-10-07T23:16:24.539Z,9.86
2018-10-07T23:18:53.431Z,9.88
2018-10-07T23:21:22.356Z,9.89
2018-10-07T23:23:51.017Z,9.89
2018-10-07T23:26:19.646Z,9.87
2018-10-07T23:28:48.267Z,9.89
2018-10-07T23:31:16.904Z,9.90
2018-10-07T23:33:46.067Z,9.91
2018-10-07T23:36:14.745Z,9.91
2018-10-07T23:38:43.438Z,9.87
2018-10-07T23:41:12.123Z,9.89
2018-10-07T23:43:40.767Z,9.89
2018-10-07T23:46:09.342Z,9.89
2018-10-07T23:48:38.020Z,9.90
2018-10-07T23:51:07.060Z,9.92
2018-10-07T23:53:35.715Z,9.91
2018-10-07T23:56:04.847Z,9.94
2018-10-07T23:58:33.584Z,9.93
